createdAt,value
2019-02-21T00:04:10.036Z,17.34
2019-02-21T00:09:07.954Z,17.44
2019-02-21T00:14:22.324Z,17.77
2019-02-21T00:19:20.389Z,15.91
2019-02-21T00:24:36.093Z,16.18
2019-02-21T00:29:35.763Z,16.84
2019-02-21T00:34:45.924Z,15.77
2019-02-21T00:39:43.503Z,15.88
2019-02-21T00:44:53.472Z,17.66
2019-02-21T00:50:06.240Z,18.20
2019-02-21T00:55:08.132Z,16.69
2019-02-21T01:00:17.117Z,16.70
2019-02-21T01:05:22.805Z,18.59
2019-02-21T01:10:31.833Z,15.07
2019-02-21T01:15:39.153Z,15.38
2019-02-21T01:20:53.783Z,14.15
2019-02-21T01:25:54.645Z,14.54
2019-02-21T01:31:03.567Z,15.29
2019-02-21T01:35:54.905Z,16.55
2019-02-21T01:40:59.736Z,16.04
2019-02-21T01:46:06.223Z,17.37
2019-02-21T01:51:10.722Z,16.68
2019-02-21T01:56:13.955Z,15.01
2019-02-21T02:01:28.125Z,15.80
2019-02-21T02:06:18.612Z,13.54
2019-02-21T02:11:20.374Z,14.28
2019-02-21T02:16:20.872Z,14.12
2019-02-21T02:21:24.999Z,13.83
2019-02-21T02:26:22.395Z,13.03
2019-02-21T02:31:35.628Z,14.11
2019-02-21T02:36:43.192Z,15.70
2019-02-21T02:41:47.743Z,15.03
2019-02-21T02:46:49.273Z,14.26
2019-02-21T02:51:50.490Z,15.16
2019-02-21T02:56:52.504Z,14.03
2019-02-21T03:01:53.566Z,13.35
2019-02-21T03:06:54.006Z,14.65
2019-02-21T03:11:56.094Z,14.70
2019-02-21T03:16:57.662Z,13.09
2019-02-21T03:21:58.020Z,14.18
2019-02-21T03:26:58.108Z,14.17
2019-02-21T03:31:59.778Z,15.10
2019-02-21T03:37:02.876Z,15.30
2019-02-21T03:42:04.468Z,17.25
2019-02-21T03:47:08.113Z,14.91
2019-02-21T03:52:13.682Z,15.97
2019-02-21T03:57:14.463Z,17.33
2019-02-21T04:02:23.432Z,14.75
2019-02-21T04:07:27.018Z,14.35
2019-02-21T04:12:27.705Z,14.99
2019-02-21T04:17:27.104Z,13.78
2019-02-21T04:22:43.773Z,13.71
2019-02-21T04:27:41.413Z,15.32
2019-02-21T04:32:53.359Z,13.77
2019-02-21T04:37:56.946Z,14.04
2019-02-21T04:42:59.764Z,14.63
2019-02-21T04:47:59.267Z,15.90
2019-02-21T04:53:01.303Z,13.70
2019-02-21T04:58:00.065Z,14.36
2019-02-21T05:03:15.179Z,14.76
2019-02-21T05:08:14.879Z,14.41
2019-02-21T05:13:15.593Z,15.06
2019-02-21T05:18:16.288Z,15.09
2019-02-21T05:23:21.006Z,14.64
2019-02-21T05:28:34.503Z,15.57
2019-02-21T05:33:23.385Z,15.92
2019-02-21T05:38:31.863Z,15.58
2019-02-21T05:43:42.523Z,17.99
2019-02-21T05:48:43.349Z,16.32
2019-02-21T05:53:45.507Z,18.23
2019-02-21T05:58:44.368Z,15.80
2019-02-21T06:03:57.965Z,15.41
2019-02-21T06:08:56.182Z,15.52
2019-02-21T06:14:15.873Z,14.96
2019-02-21T06:19:15.849Z,15.69
2019-02-21T06:24:26.090Z,15.31
2019-02-21T06:29:41.013Z,14.71
2019-02-21T06:34:31.697Z,16.12
2019-02-21T06:39:41.963Z,16.99
2019-02-21T06:44:41.010Z,17.18
2019-02-21T06:49:59.048Z,16.40
2019-02-21T06:54:58.946Z,17.84
2019-02-21T07:00:00.964Z,16.12
2019-02-21T07:04:59.495Z,17.42
2019-02-21T07:10:15.359Z,16.41
2019-02-21T07:15:25.678Z,17.64
2019-02-21T07:20:33.424Z,17.72
2019-02-21T07:25:51.807Z,17.46
2019-02-21T07:30:54.141Z,16.89
2019-02-21T07:35:43.375Z,16.43
2019-02-21T07:40:46.228Z,16.24
2019-02-21T07:45:58.831Z,16.40
2019-02-21T07:50:56.128Z,15.73
2019-02-21T07:55:58.785Z,14.83
2019-02-21T08:01:09.236Z,14.28
2019-02-21T08:06:01.069Z,15.71
2019-02-21T08:11:08.321Z,15.11
2019-02-21T08:16:08.021Z,15.65
2019-02-21T08:21:19.983Z,15.65
2019-02-21T08:26:13.616Z,16.52
2019-02-21T08:31:18.716Z,17.49
2019-02-21T08:36:27.706Z,17.28
2019-02-21T08:41:38.629Z,18.13
2019-02-21T08:46:36.053Z,18.34
2019-02-21T08:51:37.359Z,19.16
2019-02-21T08:56:41.748Z,17.81
2019-02-21T09:01:49.562Z,17.42
2019-02-21T09:06:53.307Z,16.98
2019-02-21T09:11:53.903Z,18.74
2019-02-21T09:17:01.972Z,18.71
2019-02-21T09:22:15.380Z,24.99
2019-02-21T09:27:19.872Z,25.97
2019-02-21T09:32:22.590Z,29.66
2019-02-21T09:37:22.538Z,27.78
2019-02-21T09:42:21.424Z,25.88
2019-02-21T09:47:35.086Z,24.78
2019-02-21T09:52:35.515Z,27.11
2019-02-21T09:57:35.832Z,27.65
2019-02-21T10:02:35.608Z,24.67
2019-02-21T10:07:47.990Z,24.72
2019-02-21T10:12:48.496Z,22.98
2019-02-21T10:17:56.291Z,20.34
2019-02-21T10:23:13.391Z,25.09
2019-02-21T10:28:14.755Z,24.67
2019-02-21T10:33:19.761Z,26.19
2019-02-21T10:38:19.579Z,24.47
2019-02-21T10:43:30.311Z,23.32
2019-02-21T10:48:22.338Z,22.38
2019-02-21T10:53:26.010Z,23.96
2019-02-21T10:58:26.064Z,22.22
2019-02-21T11:03:26.273Z,22.06
2019-02-21T11:08:26.469Z,19.53
2019-02-21T11:13:32.309Z,20.39
2019-02-21T11:18:40.570Z,18.50
2019-02-21T11:23:40.092Z,19.04
2019-02-21T11:28:47.371Z,18.56
2019-02-21T11:33:48.122Z,18.76
2019-02-21T11:38:49.108Z,17.58
2019-02-21T11:43:48.505Z,17.65
2019-02-21T11:49:01.775Z,17.30
2019-02-21T11:54:01.978Z,16.16
2019-02-21T11:59:02.380Z,15.82
2019-02-21T12:04:03.358Z,16.39
2019-02-21T12:09:01.910Z,16.20
2019-02-21T12:14:22.527Z,17.13
2019-02-21T12:19:16.254Z,15.90
2019-02-21T12:24:25.344Z,15.29
2019-02-21T12:29:24.223Z,14.23
2019-02-21T12:34:38.644Z,15.01
2019-02-21T12:39:42.394Z,15.10
2019-02-21T12:44:47.800Z,15.19
2019-02-21T12:49:55.400Z,14.47
2019-02-21T12:54:52.344Z,16.13
2019-02-21T13:00:08.357Z,14.40
2019-02-21T13:05:13.528Z,14.56
2019-02-21T13:10:22.771Z,14.56
2019-02-21T13:15:41.242Z,15.29
2019-02-21T13:20:49.556Z,14.53
2019-02-21T13:25:53.765Z,12.29
2019-02-21T13:31:00.542Z,13.75
2019-02-21T13:36:00.600Z,14.62
2019-02-21T13:41:07.726Z,14.11
2019-02-21T13:46:13.100Z,12.77
2019-02-21T13:51:18.647Z,12.78
2019-02-21T13:56:23.004Z,14.40
2019-02-21T14:01:31.075Z,11.79
2019-02-21T14:06:28.729Z,13.38
2019-02-21T14:11:40.615Z,12.17
2019-02-21T14:16:46.591Z,11.94
2019-02-21T14:21:47.091Z,15.04
2019-02-21T14:26:45.716Z,12.78
2019-02-21T14:31:57.124Z,13.58
2019-02-21T14:37:03.726Z,12.90
2019-02-21T14:42:05.973Z,11.85
2019-02-21T14:47:11.128Z,12.46
2019-02-21T14:52:10.152Z,12.41
2019-02-21T14:57:26.032Z,13.29
2019-02-21T15:02:28.509Z,12.87
2019-02-21T15:07:28.849Z,12.94
2019-02-21T15:12:38.959Z,12.89
2019-02-21T15:17:39.218Z,12.47
2019-02-21T15:22:44.039Z,14.31
2019-02-21T15:27:42.705Z,15.92
2019-02-21T15:32:55.922Z,14.66
2019-02-21T15:37:53.286Z,16.84
2019-02-21T15:43:05.405Z,15.04
2019-02-21T15:48:03.206Z,15.48
2019-02-21T15:53:14.843Z,16.30
2019-02-21T15:58:16.339Z,16.58
2019-02-21T16:03:15.453Z,15.96
2019-02-21T16:08:13.873Z,16.62
2019-02-21T16:13:33.642Z,20.53
2019-02-21T16:18:30.980Z,22.07
2019-02-21T16:23:43.659Z,19.26
2019-02-21T16:28:48.051Z,38.67
2019-02-21T16:33:49.130Z,32.52
2019-02-21T16:38:48.384Z,23.77
2019-02-21T16:43:57.423Z,29.00
2019-02-21T16:49:07.358Z,18.48
2019-02-21T16:54:28.894Z,22.42
2019-02-21T16:59:21.093Z,25.90
2019-02-21T17:04:22.384Z,20.99
2019-02-21T17:09:23.361Z,20.89
2019-02-21T17:14:23.946Z,25.06
2019-02-21T17:44:41.990Z,30.80
2019-02-21T17:49:55.239Z,50.91
2019-02-21T17:54:44.688Z,26.02
2019-02-21T17:59:49.129Z,21.22
2019-02-21T18:04:52.680Z,22.11
2019-02-21T18:09:51.735Z,21.00
2019-02-21T18:15:03.050Z,30.21
2019-02-21T18:20:07.278Z,21.72
2019-02-21T18:25:13.386Z,20.82
2019-02-21T18:30:21.674Z,19.39
2019-02-21T18:35:32.116Z,21.45
2019-02-21T18:40:48.306Z,23.05
2019-02-21T18:45:52.185Z,20.84
2019-02-21T18:50:53.748Z,28.45
2019-02-21T18:55:52.161Z,25.00
2019-02-21T19:01:07.931Z,20.30
2019-02-21T19:11:10.114Z,22.07
2019-02-21T19:16:14.565Z,21.37
2019-02-21T19:21:20.420Z,21.22
2019-02-21T19:26:23.969Z,21.41
2019-02-21T19:31:41.928Z,19.57
2019-02-21T19:36:29.383Z,18.83
2019-02-21T19:41:45.785Z,21.05
2019-02-21T19:46:52.247Z,21.18
2019-02-21T19:51:59.171Z,21.20
2019-02-21T19:57:02.593Z,20.83
2019-02-21T20:02:15.735Z,20.30
2019-02-21T20:07:09.636Z,21.48
2019-02-21T20:12:11.559Z,26.50
2019-02-21T20:17:16.043Z,26.41
2019-02-21T20:22:19.271Z,26.95
2019-02-21T20:27:17.901Z,27.13
2019-02-21T20:32:44.079Z,23.89
2019-02-21T20:37:35.752Z,24.41
2019-02-21T20:42:44.495Z,27.34
2019-02-21T20:47:45.358Z,24.31
2019-02-21T20:52:49.539Z,25.35
2019-02-21T20:57:47.701Z,24.00
2019-02-21T21:02:56.554Z,23.08
2019-02-21T21:08:06.121Z,29.23
2019-02-21T21:13:24.668Z,25.10
2019-02-21T21:18:27.018Z,25.28
2019-02-21T21:23:27.769Z,26.26
2019-02-21T21:28:26.840Z,25.92
2019-02-21T21:33:35.459Z,24.66
2019-02-21T21:38:54.187Z,23.61
2019-02-21T21:43:50.769Z,25.79
2019-02-21T21:48:59.825Z,24.79
2019-02-21T21:53:57.868Z,29.31
2019-02-21T22:04:22.030Z,27.71
2019-02-21T22:09:11.653Z,26.82
2019-02-21T22:14:19.844Z,26.13
2019-02-21T22:19:21.053Z,25.78
2019-02-21T22:24:28.743Z,27.57
2019-02-21T22:29:29.454Z,26.25
2019-02-21T22:34:30.811Z,26.81
2019-02-21T22:39:30.120Z,24.74
2019-02-21T22:44:30.520Z,25.87
2019-02-21T22:49:30.433Z,26.10
2019-02-21T22:54:43.825Z,28.55
2019-02-21T22:59:49.492Z,27.83
2019-02-21T23:04:55.956Z,25.31
2019-02-21T23:09:57.824Z,25.54
2019-02-21T23:14:57.699Z,27.18
2019-02-21T23:20:17.268Z,27.57
2019-02-21T23:25:20.551Z,28.95
2019-02-21T23:30:27.879Z,28.99
2019-02-21T23:35:35.861Z,31.41
2019-02-21T23:40:49.104Z,29.99
2019-02-21T23:45:43.566Z,28.75
2019-02-21T23:50:55.663Z,27.58
2019-02-21T23:55:46.006Z,28.32
